Time;durP1;ratioP1;P1;durP2;ratioP2;P2;SDS_P1;SDS_P2;PMS_P1;PMS_P2;Temp;Humidity;BMP_temperature;BMP_pressure;BME280_temperature;BME280_humidity;BME280_pressure;Samples;Min_cycle;Max_cycle;Signal;HPM_P1;HPM_P2
2021/03/13 00:00:53;;;;;;;6.25;1.63;;;5.00;99.90;;;;;;5014306;28;20115;-70
2021/03/13 00:03:37;;;;;;;5.72;1.23;;;4.90;99.90;;;;;;5033545;28;20500;-70
2021/03/13 00:06:21;;;;;;;3.75;1.30;;;4.90;99.90;;;;;;5029232;28;20512;-70
2021/03/13 00:09:06;;;;;;;6.25;1.08;;;5.00;99.90;;;;;;5016076;28;20052;-70
2021/03/13 00:11:50;;;;;;;2.42;0.93;;;5.00;99.90;;;;;;5027962;28;20099;-70
2021/03/13 00:14:34;;;;;;;6.13;1.42;;;4.90;99.90;;;;;;5019541;28;20107;-70
2021/03/13 00:17:18;;;;;;;2.63;0.93;;;5.00;99.90;;;;;;5024113;28;20056;-70
2021/03/13 00:20:02;;;;;;;4.88;1.50;;;5.00;99.90;;;;;;5013025;28;20047;-69
2021/03/13 00:22:48;;;;;;;4.35;1.00;;;5.00;99.90;;;;;;5019903;28;20125;-70
2021/03/13 00:25:33;;;;;;;2.20;0.75;;;5.00;99.90;;;;;;5031659;28;20445;-70
2021/03/13 00:28:17;;;;;;;4.15;1.17;;;5.00;99.90;;;;;;5034498;28;20049;-70
2021/03/13 00:31:02;;;;;;;5.18;1.15;;;5.00;99.90;;;;;;5025679;28;20185;-71
2021/03/13 00:33:46;;;;;;;4.38;1.17;;;5.00;99.90;;;;;;5029905;28;20129;-71
2021/03/13 00:36:30;;;;;;;4.05;0.75;;;5.00;99.90;;;;;;5028241;28;20128;-70
2021/03/13 00:39:16;;;;;;;2.17;0.73;;;5.10;99.90;;;;;;5022796;28;20559;-71
2021/03/13 00:42:00;;;;;;;1.67;0.80;;;5.10;99.90;;;;;;5021853;28;20092;-70
2021/03/13 00:44:44;;;;;;;2.40;0.50;;;5.10;99.90;;;;;;5016750;28;21787;-71
2021/03/13 00:47:28;;;;;;;2.20;0.57;;;5.10;99.90;;;;;;5021583;28;20048;-70
2021/03/13 00:50:14;;;;;;;2.00;0.52;;;5.10;99.90;;;;;;5024840;28;20080;-69
2021/03/13 00:53:00;;;;;;;1.02;0.60;;;5.20;99.90;;;;;;5023268;28;20418;-70
2021/03/13 00:55:45;;;;;;;2.00;0.60;;;5.20;99.90;;;;;;5023656;28;20087;-71
2021/03/13 00:58:29;;;;;;;3.08;0.85;;;5.20;99.90;;;;;;5019796;28;20521;-71
2021/03/13 01:01:14;;;;;;;5.97;0.90;;;5.10;99.90;;;;;;5026422;28;20044;-71
2021/03/13 01:03:58;;;;;;;2.42;1.20;;;5.10;99.90;;;;;;5023588;28;20079;-71
2021/03/13 01:06:42;;;;;;;5.50;1.10;;;5.10;99.90;;;;;;5015915;28;20085;-70
2021/03/13 01:09:26;;;;;;;6.57;1.10;;;5.10;99.90;;;;;;5019128;28;20128;-71
2021/03/13 01:12:10;;;;;;;5.57;1.10;;;5.10;99.90;;;;;;5021231;28;20139;-70
2021/03/13 01:14:54;;;;;;;8.18;1.75;;;5.10;99.90;;;;;;5020989;28;20080;-70
2021/03/13 01:17:39;;;;;;;5.15;1.75;;;5.10;99.90;;;;;;5019468;28;20123;-71
2021/03/13 01:20:24;;;;;;;5.78;1.13;;;5.10;99.90;;;;;;5015016;28;20120;-70
2021/03/13 01:23:08;;;;;;;3.50;1.77;;;5.10;99.90;;;;;;5012342;28;20091;-71
2021/03/13 01:25:53;;;;;;;3.40;1.60;;;5.10;99.90;;;;;;5015154;28;20156;-71
2021/03/13 01:28:37;;;;;;;4.65;1.67;;;5.10;99.90;;;;;;5017429;28;20048;-70
2021/03/13 01:31:21;;;;;;;3.45;1.55;;;5.10;99.90;;;;;;5019866;28;20075;-70
2021/03/13 01:34:05;;;;;;;5.55;1.42;;;5.00;99.90;;;;;;5018528;28;20125;-70
2021/03/13 01:36:49;;;;;;;1.73;0.60;;;5.00;99.90;;;;;;5018929;28;20049;-71
2021/03/13 01:39:33;;;;;;;3.72;0.60;;;5.00;99.90;;;;;;5023995;28;20078;-71
2021/03/13 01:42:17;;;;;;;1.08;0.40;;;5.00;99.90;;;;;;5022798;28;20056;-71
2021/03/13 01:45:03;;;;;;;1.88;0.50;;;4.90;99.90;;;;;;5015033;28;20064;-71
2021/03/13 01:47:49;;;;;;;1.80;0.50;;;4.90;99.90;;;;;;5015753;28;20126;-70
2021/03/13 01:50:33;;;;;;;1.60;0.60;;;4.90;99.90;;;;;;5016919;28;20510;-70
2021/03/13 01:53:17;;;;;;;2.30;0.90;;;4.90;99.90;;;;;;5010798;28;20071;-71
2021/03/13 01:56:02;;;;;;;2.20;0.88;;;4.80;99.90;;;;;;5028495;28;20048;-71
2021/03/13 01:58:46;;;;;;;1.88;0.70;;;4.90;99.90;;;;;;5019949;28;20082;-70
2021/03/13 02:01:30;;;;;;;3.20;1.00;;;4.90;99.90;;;;;;5018627;28;20072;-70
2021/03/13 02:04:16;;;;;;;2.88;0.73;;;4.90;99.90;;;;;;5028430;28;20091;-70
2021/03/13 02:07:14;;;;;;;1.52;0.50;;;4.90;99.90;;;;;;5020622;28;20394;-70
2021/03/13 02:10:15;;;;;;;4.47;0.50;;;5.00;99.90;;;;;;5017661;28;20148;-70
2021/03/13 02:13:05;;;;;;;3.00;0.70;;;5.00;99.90;;;;;;5022329;28;20509;-70
2021/03/13 02:16:02;;;;;;;3.25;1.00;;;5.00;99.90;;;;;;5016841;28;20042;-71
2021/03/13 02:19:15;;;;;;;6.88;1.13;;;5.00;99.90;;;;;;5010077;28;20041;-70
2021/03/13 02:22:04;;;;;;;2.67;1.20;;;5.00;99.90;;;;;;5018069;28;20084;-70
2021/03/13 02:25:07;;;;;;;3.92;0.80;;;5.10;99.90;;;;;;5015119;28;20287;-70
2021/03/13 02:28:27;;;;;;;10.40;0.93;;;5.10;99.90;;;;;;5011231;28;20049;-70
2021/03/13 02:31:12;;;;;;;5.93;1.00;;;5.20;99.90;;;;;;5000190;28;20084;-70
2021/03/13 02:34:00;;;;;;;4.07;1.10;;;5.20;99.90;;;;;;5022413;28;20045;-70
2021/03/13 02:36:46;;;;;;;7.90;1.75;;;5.30;99.90;;;;;;5014862;28;20130;-71
2021/03/13 02:39:32;;;;;;;4.85;1.33;;;5.20;99.90;;;;;;5019351;28;20049;-70
2021/03/13 02:42:18;;;;;;;3.50;1.20;;;5.30;99.90;;;;;;5025705;28;20071;-70
2021/03/13 02:45:05;;;;;;;5.00;1.10;;;5.30;99.90;;;;;;5021109;28;20044;-70
2021/03/13 02:47:51;;;;;;;4.25;0.98;;;5.30;99.90;;;;;;5027549;28;20063;-71
2021/03/13 02:50:38;;;;;;;3.55;0.75;;;5.30;99.90;;;;;;5017998;28;20048;-71
2021/03/13 02:53:24;;;;;;;7.07;0.80;;;5.40;99.90;;;;;;5017171;28;20060;-71
2021/03/13 02:56:11;;;;;;;6.90;1.00;;;5.40;99.90;;;;;;5013454;28;20048;-70
2021/03/13 02:58:56;;;;;;;4.53;0.57;;;5.40;99.90;;;;;;5012132;28;20045;-70
2021/03/13 03:01:42;;;;;;;3.35;0.88;;;5.40;99.90;;;;;;5031833;28;20039;-71
2021/03/13 03:04:26;;;;;;;5.63;0.70;;;5.30;99.90;;;;;;5021264;28;20053;-71
2021/03/13 03:07:12;;;;;;;1.42;0.55;;;5.30;99.90;;;;;;5011052;28;20224;-71
2021/03/13 03:09:58;;;;;;;5.70;0.90;;;5.30;99.90;;;;;;5022533;28;20068;-70
2021/03/13 03:12:43;;;;;;;5.90;0.85;;;5.30;99.90;;;;;;5027095;28;20175;-71
2021/03/13 03:15:30;;;;;;;2.45;0.60;;;5.30;99.90;;;;;;5021002;28;20119;-71
2021/03/13 03:18:18;;;;;;;2.88;0.88;;;5.30;99.90;;;;;;5028473;28;20183;-71
2021/03/13 03:21:03;;;;;;;3.17;0.60;;;5.20;99.90;;;;;;5023549;28;20099;-70
2021/03/13 03:23:48;;;;;;;1.20;0.50;;;5.20;99.90;;;;;;5031050;28;20076;-70
2021/03/13 03:26:34;;;;;;;2.35;0.60;;;5.20;99.90;;;;;;5025432;28;20209;-70
2021/03/13 03:29:19;;;;;;;2.05;0.80;;;5.30;99.90;;;;;;5019986;28;20091;-70
2021/03/13 03:32:04;;;;;;;6.15;0.98;;;5.30;99.90;;;;;;5019402;28;20583;-70
2021/03/13 03:34:48;;;;;;;2.60;0.90;;;5.40;99.90;;;;;;5027345;28;20040;-70
2021/03/13 03:37:32;;;;;;;1.58;0.60;;;5.40;99.90;;;;;;5019282;28;20130;-70
2021/03/13 03:40:18;;;;;;;3.22;0.90;;;5.40;99.90;;;;;;5021099;28;20049;-71
2021/03/13 03:43:24;;;;;;;8.80;1.65;;;5.40;99.90;;;;;;5024175;28;20399;-71
2021/03/13 03:46:10;;;;;;;3.10;0.70;;;5.40;99.90;;;;;;5025089;28;20049;-71
2021/03/13 03:48:56;;;;;;;5.53;1.23;;;5.40;99.90;;;;;;5015697;28;20123;-71
2021/03/13 03:51:41;;;;;;;6.00;1.10;;;5.40;99.90;;;;;;5021315;28;20072;-71
2021/03/13 03:54:26;;;;;;;3.88;0.60;;;5.40;99.90;;;;;;5025826;28;20057;-70
2021/03/13 03:57:12;;;;;;;2.20;0.88;;;5.40;99.90;;;;;;5019237;28;20509;-71
2021/03/13 03:59:58;;;;;;;6.25;1.02;;;5.50;99.90;;;;;;5016558;28;20045;-69
2021/03/13 04:02:43;;;;;;;2.38;0.60;;;5.50;99.90;;;;;;5024480;28;20091;-70
2021/03/13 04:05:28;;;;;;;4.88;0.88;;;5.60;99.90;;;;;;5015724;28;20521;-71
2021/03/13 04:08:15;;;;;;;8.02;1.20;;;5.60;99.90;;;;;;5019548;28;20083;-70
2021/03/13 04:11:01;;;;;;;8.70;1.15;;;5.70;99.90;;;;;;5030556;28;20056;-70
2021/03/13 04:13:48;;;;;;;6.15;0.80;;;5.70;99.90;;;;;;5015821;28;20052;-71
2021/03/13 04:16:33;;;;;;;4.72;0.63;;;5.70;99.90;;;;;;5025305;28;20049;-70
2021/03/13 04:19:18;;;;;;;6.20;0.90;;;5.80;99.90;;;;;;5022518;28;20044;-71
2021/03/13 04:22:02;;;;;;;5.05;0.80;;;5.80;99.90;;;;;;5018409;28;20075;-71
2021/03/13 04:24:47;;;;;;;5.72;0.90;;;5.70;99.90;;;;;;5029073;28;20055;-70
2021/03/13 04:27:32;;;;;;;8.80;1.30;;;5.70;99.90;;;;;;5032405;28;20418;-70
2021/03/13 04:30:18;;;;;;;5.13;1.02;;;5.60;99.90;;;;;;5023259;28;20533;-71
2021/03/13 04:33:03;;;;;;;8.60;1.13;;;5.60;99.90;;;;;;5020536;28;20079;-70
2021/03/13 04:35:50;;;;;;;12.15;1.30;;;5.80;99.90;;;;;;5027358;28;20079;-71
2021/03/13 04:38:36;;;;;;;12.63;1.98;;;5.70;99.90;;;;;;5024839;28;20119;-71
2021/03/13 04:41:22;;;;;;;5.05;1.10;;;5.60;99.90;;;;;;5027357;28;20095;-71
2021/03/13 04:44:07;;;;;;;13.63;1.35;;;5.70;99.90;;;;;;5022705;28;20052;-71
2021/03/13 04:46:53;;;;;;;31.77;1.55;;;5.70;99.90;;;;;;5022946;28;20092;-70
2021/03/13 04:49:38;;;;;;;8.48;1.60;;;5.80;99.90;;;;;;5021504;28;20107;-71
2021/03/13 04:52:22;;;;;;;6.57;1.00;;;5.80;99.90;;;;;;5027662;28;20048;-71
2021/03/13 04:55:07;;;;;;;10.10;1.45;;;5.80;99.90;;;;;;5023681;28;20056;-70
2021/03/13 04:57:51;;;;;;;7.70;0.80;;;5.80;99.90;;;;;;5022735;28;20041;-70
2021/03/13 05:00:36;;;;;;;6.80;0.93;;;5.80;99.90;;;;;;5018756;28;20052;-70
2021/03/13 05:03:20;;;;;;;9.20;1.10;;;5.80;99.90;;;;;;5017533;28;20037;-71
2021/03/13 05:06:04;;;;;;;6.75;0.90;;;5.80;99.90;;;;;;5018973;28;20446;-71
2021/03/13 05:08:48;;;;;;;7.32;0.65;;;5.80;99.90;;;;;;5020939;28;20482;-71
2021/03/13 05:11:34;;;;;;;3.08;0.43;;;5.90;99.90;;;;;;5013512;28;20084;-70
2021/03/13 05:14:18;;;;;;;6.88;0.88;;;5.80;99.90;;;;;;5027140;28;20129;-70
2021/03/13 05:17:03;;;;;;;2.47;1.23;;;5.80;99.90;;;;;;5029491;28;20467;-71
2021/03/13 05:19:47;;;;;;;10.27;1.23;;;5.80;99.90;;;;;;5021849;28;20657;-70
2021/03/13 05:22:31;;;;;;;5.40;1.13;;;5.90;99.90;;;;;;5027827;28;20041;-70
2021/03/13 05:25:16;;;;;;;2.63;0.80;;;5.80;99.90;;;;;;5024906;28;20099;-71
2021/03/13 05:28:00;;;;;;;3.30;1.02;;;5.80;99.90;;;;;;5018035;28;20044;-69
2021/03/13 05:30:45;;;;;;;4.70;0.60;;;5.80;99.90;;;;;;5021861;28;20155;-70
2021/03/13 05:33:29;;;;;;;8.00;0.98;;;5.80;99.90;;;;;;5023133;28;20104;-70
2021/03/13 05:36:13;;;;;;;6.85;0.98;;;5.80;99.90;;;;;;5024352;28;20053;-70
2021/03/13 05:38:57;;;;;;;7.45;0.73;;;5.70;99.90;;;;;;5026861;28;20091;-70
2021/03/13 05:41:43;;;;;;;5.32;0.68;;;5.70;99.90;;;;;;5032022;28;20048;-70
2021/03/13 05:44:28;;;;;;;4.95;0.65;;;5.80;99.90;;;;;;5014322;28;20103;-70
2021/03/13 05:47:13;;;;;;;4.15;0.65;;;5.90;99.90;;;;;;5023410;28;20149;-69
2021/03/13 05:50:05;;;;;;;5.47;0.82;;;5.80;99.90;;;;;;5018093;28;20084;-70
2021/03/13 05:52:54;;;;;;;5.30;0.70;;;5.70;99.90;;;;;;5022312;28;20108;-69
2021/03/13 05:55:39;;;;;;;6.03;0.93;;;5.80;99.90;;;;;;5028706;28;20095;-69
2021/03/13 05:58:23;;;;;;;5.07;0.75;;;5.80;99.90;;;;;;5031916;28;20044;-69
2021/03/13 06:01:08;;;;;;;5.43;0.80;;;5.80;99.90;;;;;;5024373;28;20080;-70
2021/03/13 06:03:53;;;;;;;5.47;0.52;;;5.80;99.90;;;;;;5021335;28;20041;-70
2021/03/13 06:06:39;;;;;;;5.13;0.73;;;5.80;99.90;;;;;;5025742;28;20048;-70
2021/03/13 06:09:23;;;;;;;5.95;0.80;;;5.80;99.90;;;;;;5009593;28;20092;-70
2021/03/13 06:12:08;;;;;;;4.95;0.80;;;5.80;99.90;;;;;;5026760;28;20053;-70
2021/03/13 06:14:54;;;;;;;4.50;0.60;;;5.90;99.90;;;;;;5031330;28;20048;-70
2021/03/13 06:17:54;;;;;;;5.60;0.70;;;5.80;99.90;;;;;;5019326;28;20153;-70
2021/03/13 06:20:39;;;;;;;3.25;0.60;;;5.80;99.90;;;;;;5022026;28;20048;-69
2021/03/13 06:23:32;;;;;;;3.95;0.70;;;5.70;99.90;;;;;;5010013;28;20184;-70
2021/03/13 06:26:16;;;;;;;9.15;1.17;;;5.80;99.90;;;;;;5028652;28;20120;-70
2021/03/13 06:29:13;;;;;;;2.60;0.68;;;5.70;99.90;;;;;;5010007;28;20393;-68
2021/03/13 06:32:13;;;;;;;8.20;0.77;;;5.80;99.90;;;;;;5014285;28;20096;-69
2021/03/13 06:35:30;;;;;;;7.13;1.13;;;6.00;99.90;;;;;;5023010;28;20059;-70
2021/03/13 06:38:25;;;;;;;4.00;0.70;;;5.90;99.90;;;;;;5012469;28;20482;-69
2021/03/13 06:41:24;;;;;;;6.03;0.90;;;6.00;99.90;;;;;;5010817;28;20107;-69
2021/03/13 06:44:15;;;;;;;6.38;1.00;;;6.00;99.90;;;;;;5021333;28;20061;-69
2021/03/13 06:47:00;;;;;;;5.35;1.08;;;6.00;99.90;;;;;;5029199;28;20146;-70
2021/03/13 06:49:44;;;;;;;3.13;0.50;;;6.00;99.90;;;;;;5021821;28;20398;-69
2021/03/13 06:52:28;;;;;;;6.00;0.85;;;6.20;99.90;;;;;;5023723;28;20057;-69
2021/03/13 06:55:34;;;;;;;5.00;0.90;;;6.20;99.90;;;;;;5014156;28;20092;-69
2021/03/13 06:58:30;;;;;;;5.20;1.30;;;6.20;99.90;;;;;;5024166;28;20103;-69
2021/03/13 07:01:14;;;;;;;6.63;0.98;;;6.30;99.90;;;;;;5028442;28;20548;-69
2021/03/13 07:03:59;;;;;;;7.15;0.90;;;6.20;99.90;;;;;;5041049;28;20088;-69
2021/03/13 07:06:46;;;;;;;9.10;1.25;;;6.20;99.90;;;;;;5028131;28;20052;-69
2021/03/13 07:09:52;;;;;;;7.60;0.77;;;6.30;99.90;;;;;;5027514;28;20083;-69
2021/03/13 07:12:41;;;;;;;5.43;1.08;;;6.30;99.90;;;;;;5022048;28;20128;-70
2021/03/13 07:15:25;;;;;;;5.53;1.52;;;6.50;99.90;;;;;;5027708;28;20044;-69
2021/03/13 07:18:10;;;;;;;5.55;1.13;;;6.60;99.90;;;;;;5029191;28;20032;-69
2021/03/13 07:20:55;;;;;;;12.98;0.90;;;6.60;99.90;;;;;;5023192;28;20107;-70
2021/03/13 07:23:43;;;;;;;6.88;0.80;;;6.70;99.90;;;;;;5027742;28;20045;-70
2021/03/13 07:26:35;;;;;;;10.68;1.00;;;6.80;99.90;;;;;;5026248;28;20051;-69
2021/03/13 07:29:22;;;;;;;7.63;0.93;;;6.80;99.90;;;;;;5027680;28;20055;-69
2021/03/13 07:32:13;;;;;;;3.97;0.98;;;6.80;99.90;;;;;;5032849;28;20091;-69
2021/03/13 07:35:03;;;;;;;7.32;0.90;;;6.90;99.90;;;;;;5025966;28;20182;-70
2021/03/13 07:37:52;;;;;;;2.60;0.60;;;6.90;99.90;;;;;;5032758;28;20644;-70
2021/03/13 07:40:43;;;;;;;8.38;0.80;;;6.90;99.90;;;;;;5031189;28;20517;-69
2021/03/13 07:43:29;;;;;;;3.15;0.90;;;6.90;99.90;;;;;;5029467;28;20472;-69
2021/03/13 07:46:13;;;;;;;6.00;0.90;;;6.90;99.90;;;;;;5005153;28;56770;-69
2021/03/13 07:48:58;;;;;;;4.88;0.70;;;6.90;99.90;;;;;;5015678;28;20558;-69
2021/03/13 07:51:45;;;;;;;8.07;0.90;;;6.90;99.90;;;;;;5019188;28;20525;-70
2021/03/13 07:54:31;;;;;;;5.15;0.80;;;6.80;99.90;;;;;;5013403;28;20099;-69
2021/03/13 07:57:18;;;;;;;8.68;1.25;;;6.70;99.90;;;;;;5016328;28;20120;-69
2021/03/13 08:00:04;;;;;;;3.28;0.75;;;6.60;99.90;;;;;;5024745;28;20092;-69
2021/03/13 08:02:48;;;;;;;6.35;0.77;;;6.50;99.90;;;;;;5016063;28;20045;-69
2021/03/13 08:05:57;;;;;;;6.97;1.48;;;6.50;99.90;;;;;;5010052;28;20124;-69
2021/03/13 08:08:46;;;;;;;4.35;0.80;;;6.40;99.90;;;;;;5019225;28;20411;-69
2021/03/13 08:11:46;;;;;;;4.32;0.70;;;6.40;99.90;;;;;;5016108;28;20088;-68
2021/03/13 08:14:31;;;;;;;4.18;0.52;;;6.50;99.90;;;;;;5018065;28;20052;-69
2021/03/13 08:17:15;;;;;;;5.93;0.70;;;6.40;99.90;;;;;;5016436;28;20410;-69
2021/03/13 08:20:11;;;;;;;5.13;0.80;;;6.30;99.90;;;;;;5021231;28;20125;-68
2021/03/13 08:23:13;;;;;;;4.40;0.68;;;6.40;99.90;;;;;;5021213;28;20063;-69
2021/03/13 08:26:00;;;;;;;3.65;0.60;;;6.40;99.90;;;;;;5020811;28;20107;-69
2021/03/13 08:28:47;;;;;;;3.13;0.60;;;6.40;99.90;;;;;;5021172;28;20462;-68
2021/03/13 08:31:32;;;;;;;6.35;1.02;;;6.50;99.90;;;;;;5017538;28;20045;-69
2021/03/13 08:34:20;;;;;;;4.43;0.73;;;6.60;99.90;;;;;;5018420;28;20041;-69
2021/03/13 08:37:15;;;;;;;4.03;0.68;;;6.50;99.90;;;;;;5028441;28;20558;-70
2021/03/13 08:40:20;;;;;;;3.33;0.75;;;6.60;99.90;;;;;;5019784;28;20091;-69
2021/03/13 08:43:40;;;;;;;3.72;0.55;;;6.70;99.90;;;;;;5013483;28;20096;-70
2021/03/13 08:46:40;;;;;;;4.57;0.63;;;6.70;99.90;;;;;;5019259;28;20056;-69
2021/03/13 08:49:24;;;;;;;5.70;1.25;;;6.70;99.90;;;;;;5014641;28;20425;-69
2021/03/13 08:52:08;;;;;;;0.88;0.40;;;6.60;99.90;;;;;;5019835;28;20537;-69
2021/03/13 08:54:54;;;;;;;7.07;0.50;;;6.70;99.90;;;;;;5015100;28;20259;-69
2021/03/13 08:57:44;;;;;;;2.72;0.47;;;6.70;99.90;;;;;;5018928;28;20077;-69
2021/03/13 09:00:28;;;;;;;7.93;0.73;;;6.60;99.90;;;;;;5019942;28;20541;-69
2021/03/13 09:03:12;;;;;;;6.40;0.70;;;6.50;99.90;;;;;;5016146;28;20521;-69
2021/03/13 09:05:56;;;;;;;7.80;0.82;;;6.60;99.90;;;;;;5018321;28;20415;-69
2021/03/13 09:08:40;;;;;;;6.38;0.50;;;6.50;99.90;;;;;;5012803;28;20458;-69
2021/03/13 09:11:28;;;;;;;2.50;0.70;;;6.50;99.90;;;;;;5016130;28;20068;-69
2021/03/13 09:14:13;;;;;;;3.80;0.55;;;6.50;99.90;;;;;;5019695;28;20076;-70
2021/03/13 09:16:57;;;;;;;3.00;0.80;;;6.50;99.90;;;;;;5025346;28;20141;-69
2021/03/13 09:19:42;;;;;;;2.47;0.80;;;6.50;99.90;;;;;;5016100;28;20053;-70
2021/03/13 09:22:27;;;;;;;2.20;0.50;;;6.50;99.90;;;;;;5017279;28;20437;-70
2021/03/13 09:25:13;;;;;;;1.60;0.50;;;6.40;99.90;;;;;;5027131;28;20045;-70
2021/03/13 09:27:57;;;;;;;5.05;0.70;;;6.40;99.90;;;;;;5029412;28;20622;-70
2021/03/13 09:30:42;;;;;;;2.72;0.65;;;6.40;99.90;;;;;;5027119;28;20044;-70
2021/03/13 09:33:26;;;;;;;2.20;0.60;;;6.40;99.90;;;;;;5029184;28;20068;-70
2021/03/13 09:36:11;;;;;;;3.13;0.73;;;6.30;99.90;;;;;;5023873;28;20040;-70
2021/03/13 09:38:56;;;;;;;3.63;0.40;;;6.30;99.90;;;;;;5020271;28;20061;-70
2021/03/13 09:41:40;;;;;;;2.83;0.50;;;6.30;99.90;;;;;;5024047;28;20561;-70
2021/03/13 09:44:36;;;;;;;3.75;0.50;;;6.30;99.90;;;;;;5019811;28;20056;-70
2021/03/13 09:47:25;;;;;;;1.90;0.60;;;6.30;99.90;;;;;;5018900;28;20083;-70
2021/03/13 09:50:15;;;;;;;6.43;0.70;;;6.30;99.90;;;;;;5022708;28;20041;-69
2021/03/13 09:53:02;;;;;;;3.70;0.90;;;6.30;99.90;;;;;;5024090;28;20434;-70
2021/03/13 09:55:47;;;;;;;3.08;0.82;;;6.30;99.90;;;;;;5023136;28;20094;-70
2021/03/13 09:58:33;;;;;;;7.55;1.15;;;6.30;99.90;;;;;;5022065;28;20060;-71
2021/03/13 10:01:17;;;;;;;3.15;0.88;;;6.40;99.90;;;;;;5021273;28;20048;-70
2021/03/13 10:04:01;;;;;;;3.03;0.50;;;6.40;99.90;;;;;;5017349;28;20063;-71
2021/03/13 10:06:46;;;;;;;6.82;0.90;;;6.40;99.90;;;;;;5015051;28;20451;-70
2021/03/13 10:09:30;;;;;;;3.28;0.55;;;6.40;99.90;;;;;;5017214;28;20056;-70
2021/03/13 10:12:14;;;;;;;4.40;0.50;;;6.40;99.90;;;;;;5020412;28;20052;-70
2021/03/13 10:15:20;;;;;;;1.60;0.50;;;6.40;99.90;;;;;;5022548;28;20486;-71
2021/03/13 10:18:10;;;;;;;3.15;0.40;;;6.50;99.90;;;;;;5013737;28;20091;-70
2021/03/13 10:20:58;;;;;;;1.77;0.30;;;6.40;99.90;;;;;;5009854;28;20120;-70
2021/03/13 10:23:42;;;;;;;3.53;0.40;;;6.50;99.90;;;;;;5008328;28;20104;-71
2021/03/13 10:26:28;;;;;;;4.20;0.85;;;6.50;99.90;;;;;;5018295;28;20056;-70
2021/03/13 10:29:12;;;;;;;3.08;0.70;;;6.50;99.90;;;;;;5012854;28;20350;-70
2021/03/13 10:32:02;;;;;;;1.48;0.43;;;6.40;99.90;;;;;;5020749;28;20049;-71
2021/03/13 10:34:47;;;;;;;3.17;0.60;;;6.30;99.90;;;;;;5017583;28;20040;-71
2021/03/13 10:37:45;;;;;;;2.08;0.47;;;6.30;99.90;;;;;;5021059;28;20053;-70
2021/03/13 10:40:39;;;;;;;1.85;0.55;;;6.30;99.90;;;;;;5025794;28;20405;-69
2021/03/13 10:43:36;;;;;;;1.90;0.40;;;6.20;99.90;;;;;;5017918;28;20418;-69
2021/03/13 10:46:22;;;;;;;1.50;0.40;;;5.50;99.90;;;;;;5022413;28;20443;-69
2021/03/13 10:49:07;;;;;;;0.90;0.40;;;3.90;99.90;;;;;;5018638;28;20114;-69
2021/03/13 10:51:53;;;;;;;1.15;0.30;;;2.90;99.90;;;;;;5024415;28;20096;-69
2021/03/13 10:54:45;;;;;;;0.60;0.30;;;2.70;99.90;;;;;;5016926;28;20045;-69
2021/03/13 10:57:29;;;;;;;4.00;0.52;;;2.80;99.90;;;;;;5022233;28;20515;-69
2021/03/13 11:00:14;;;;;;;2.40;0.30;;;2.80;99.90;;;;;;5023839;28;20087;-69
2021/03/13 11:02:58;;;;;;;1.27;0.38;;;2.80;99.90;;;;;;5027839;28;20067;-70
2021/03/13 11:05:42;;;;;;;1.02;0.30;;;2.70;99.90;;;;;;5026105;28;20418;-70
2021/03/13 11:08:28;;;;;;;1.05;0.50;;;2.40;99.90;;;;;;5020366;28;20056;-70
2021/03/13 11:11:12;;;;;;;0.30;0.20;;;2.20;99.90;;;;;;5028598;28;20540;-69
2021/03/13 11:13:57;;;;;;;0.98;0.40;;;2.10;99.90;;;;;;5016265;28;20164;-70
2021/03/13 11:16:43;;;;;;;1.55;0.57;;;2.10;99.90;;;;;;5020755;28;20049;-70
2021/03/13 11:19:29;;;;;;;3.97;0.95;;;2.20;99.90;;;;;;5016296;28;20109;-69
2021/03/13 11:22:13;;;;;;;3.83;1.33;;;2.30;99.90;;;;;;5020271;28;20045;-70
2021/03/13 11:24:57;;;;;;;1.58;0.80;;;2.40;99.90;;;;;;5020485;28;20103;-70
2021/03/13 11:27:41;;;;;;;3.22;1.30;;;2.40;99.90;;;;;;5017817;28;20051;-70
2021/03/13 11:30:26;;;;;;;0.70;0.30;;;2.60;99.90;;;;;;5030881;28;20076;-70
2021/03/13 11:33:11;;;;;;;1.77;0.38;;;2.80;99.90;;;;;;5031591;28;20103;-70
2021/03/13 11:35:56;;;;;;;2.42;0.63;;;3.00;99.90;;;;;;5023746;28;20049;-70
2021/03/13 11:38:41;;;;;;;1.20;0.30;;;3.30;99.90;;;;;;5023799;28;20037;-69
2021/03/13 11:41:25;;;;;;;1.17;0.40;;;3.50;99.90;;;;;;5019880;28;20140;-70
2021/03/13 11:44:10;;;;;;;1.08;0.40;;;3.60;99.90;;;;;;5018027;28;20080;-70
2021/03/13 11:46:54;;;;;;;1.50;0.43;;;3.70;99.90;;;;;;5025417;28;20048;-69
2021/03/13 11:49:38;;;;;;;0.40;0.30;;;3.90;99.90;;;;;;5024972;28;20123;-70
2021/03/13 11:52:23;;;;;;;2.10;0.60;;;4.00;99.90;;;;;;5017428;28;20112;-70
2021/03/13 11:55:09;;;;;;;0.57;0.30;;;4.10;99.90;;;;;;5024651;28;20510;-71
2021/03/13 11:57:54;;;;;;;2.42;0.47;;;4.20;99.90;;;;;;5025067;28;20044;-71
2021/03/13 12:00:39;;;;;;;2.67;0.50;;;4.30;99.90;;;;;;5028524;28;20096;-70
2021/03/13 12:03:24;;;;;;;0.50;0.30;;;4.30;99.90;;;;;;5026218;28;20107;-70
2021/03/13 12:06:08;;;;;;;2.40;0.52;;;4.40;99.90;;;;;;5026209;28;20152;-70
2021/03/13 12:08:52;;;;;;;4.15;0.50;;;4.50;99.90;;;;;;5027085;28;20056;-70
2021/03/13 12:11:36;;;;;;;2.47;0.55;;;4.60;99.90;;;;;;5022655;28;20059;-70
2021/03/13 12:14:20;;;;;;;4.05;0.40;;;4.70;99.90;;;;;;5025484;28;20048;-70
2021/03/13 12:17:07;;;;;;;2.42;0.52;;;4.80;99.90;;;;;;5028415;28;20164;-70
2021/03/13 12:19:51;;;;;;;3.47;0.60;;;4.90;99.90;;;;;;5022424;28;20040;-70
2021/03/13 12:22:36;;;;;;;2.45;0.60;;;4.90;99.90;;;;;;5028549;28;20545;-71
2021/03/13 12:25:20;;;;;;;3.67;0.50;;;5.00;99.90;;;;;;5019137;28;20513;-70
2021/03/13 12:28:04;;;;;;;4.78;0.65;;;5.20;99.90;;;;;;5029737;28;20048;-69
2021/03/13 12:30:49;;;;;;;2.92;0.57;;;5.30;99.90;;;;;;5025488;28;20091;-69
2021/03/13 12:33:33;;;;;;;3.92;0.80;;;5.40;99.90;;;;;;5022471;28;20052;-69
2021/03/13 12:36:17;;;;;;;7.53;0.90;;;5.40;99.90;;;;;;5015845;28;20049;-70
2021/03/13 12:39:02;;;;;;;7.32;0.90;;;5.50;99.90;;;;;;5025376;28;20040;-70
2021/03/13 12:41:47;;;;;;;5.28;0.60;;;5.30;99.90;;;;;;5017889;28;20051;-70
2021/03/13 12:44:31;;;;;;;6.25;1.17;;;5.30;99.90;;;;;;5017644;28;20063;-69
2021/03/13 12:47:15;;;;;;;2.97;0.68;;;5.30;99.90;;;;;;5011965;28;20048;-70
2021/03/13 12:50:02;;;;;;;6.47;1.17;;;5.30;99.90;;;;;;5018064;28;20376;-69
2021/03/13 12:52:46;;;;;;;5.38;0.82;;;5.30;99.90;;;;;;5020540;28;20083;-70
2021/03/13 12:55:30;;;;;;;3.80;0.77;;;5.30;99.90;;;;;;5017616;28;20100;-70
2021/03/13 12:58:14;;;;;;;5.18;1.10;;;5.40;99.90;;;;;;5017407;28;20036;-70
2021/03/13 13:00:59;;;;;;;5.60;0.90;;;5.90;99.90;;;;;;5015490;28;20859;-70
2021/03/13 13:03:43;;;;;;;8.32;1.40;;;6.20;99.90;;;;;;5016871;28;20041;-71
2021/03/13 13:06:27;;;;;;;5.65;1.02;;;6.70;99.90;;;;;;5019928;28;20240;-71
2021/03/13 13:09:12;;;;;;;6.57;1.20;;;6.80;99.90;;;;;;5018325;28;20106;-71
2021/03/13 13:11:56;;;;;;;3.72;0.60;;;6.60;99.90;;;;;;5028832;28;20565;-71
2021/03/13 13:14:40;;;;;;;4.45;0.80;;;6.40;99.90;;;;;;5022709;28;20091;-71
2021/03/13 13:17:24;;;;;;;2.38;0.68;;;6.50;99.90;;;;;;5021489;28;20044;-71
2021/03/13 13:20:14;;;;;;;8.00;0.82;;;6.30;99.90;;;;;;5014375;28;20051;-71
2021/03/13 13:22:58;;;;;;;4.72;1.30;;;6.20;99.90;;;;;;5019182;28;20138;-71
2021/03/13 13:25:44;;;;;;;4.63;0.93;;;6.10;99.90;;;;;;5020684;28;20474;-72
2021/03/13 13:28:29;;;;;;;6.10;0.90;;;6.00;99.90;;;;;;5020230;28;20644;-71
2021/03/13 13:31:13;;;;;;;5.90;1.20;;;6.00;99.90;;;;;;5015663;28;20100;-72
2021/03/13 13:33:57;;;;;;;7.18;0.90;;;5.70;99.90;;;;;;5019494;28;20048;-73
2021/03/13 13:36:42;;;;;;;9.85;1.35;;;5.50;99.90;;;;;;5017203;28;20056;-72
2021/03/13 13:39:27;;;;;;;7.68;1.52;;;5.40;99.90;;;;;;5023337;28;20044;-71
2021/03/13 13:42:11;;;;;;;4.93;0.90;;;5.30;99.90;;;;;;5019948;28;20068;-71
2021/03/13 13:44:55;;;;;;;7.45;1.40;;;5.20;99.90;;;;;;5017664;28;20114;-72
2021/03/13 13:47:40;;;;;;;4.38;0.65;;;5.20;99.90;;;;;;5018040;28;20060;-72
2021/03/13 13:50:28;;;;;;;4.43;0.80;;;5.10;99.90;;;;;;5018591;28;20100;-71
2021/03/13 13:53:12;;;;;;;3.47;0.82;;;5.00;99.90;;;;;;5019089;28;20057;-71
2021/03/13 13:55:56;;;;;;;4.72;0.68;;;4.90;99.90;;;;;;5021563;28;20087;-72
2021/03/13 13:58:41;;;;;;;4.47;0.70;;;5.10;99.90;;;;;;5022270;28;20109;-72
2021/03/13 14:01:25;;;;;;;3.45;0.80;;;5.80;99.90;;;;;;5019635;28;20049;-72
2021/03/13 14:04:11;;;;;;;1.70;0.60;;;6.70;99.90;;;;;;5020461;28;20534;-71
2021/03/13 14:06:55;;;;;;;3.13;0.55;;;7.60;99.90;;;;;;5014009;28;20103;-71
2021/03/13 14:09:39;;;;;;;4.45;0.90;;;7.30;99.90;;;;;;5016840;28;20139;-71
2021/03/13 14:12:23;;;;;;;3.40;0.60;;;7.70;99.90;;;;;;5013951;28;20129;-71
2021/03/13 14:15:08;;;;;;;2.60;0.45;;;9.50;99.90;;;;;;5026889;28;20056;-71
2021/03/13 14:17:52;;;;;;;4.00;0.70;;;10.30;99.90;;;;;;5021634;28;20525;-70
2021/03/13 14:20:37;;;;;;;5.00;0.73;;;9.90;99.90;;;;;;5021459;28;20040;-70
2021/03/13 14:23:21;;;;;;;3.50;0.75;;;9.40;99.90;;;;;;5021309;28;20044;-70
2021/03/13 14:26:05;;;;;;;4.70;0.60;;;9.70;99.90;;;;;;5024673;28;20060;-71
2021/03/13 14:28:50;;;;;;;3.28;0.73;;;10.60;99.90;;;;;;5019418;28;20072;-70
2021/03/13 14:31:35;;;;;;;7.75;1.00;;;9.70;99.90;;;;;;5008997;28;20091;-70
2021/03/13 14:34:20;;;;;;;7.28;1.20;;;8.70;99.90;;;;;;5013148;28;20544;-71
2021/03/13 14:37:04;;;;;;;3.47;1.02;;;8.20;99.90;;;;;;5010815;28;20049;-71
2021/03/13 14:39:49;;;;;;;5.88;1.10;;;8.30;99.90;;;;;;5015241;28;20044;-71